createdAt,value
2022-10-26T00:04:46.322Z,84.36
2022-10-26T00:09:47.559Z,84.28
2022-10-26T00:14:48.853Z,84.51
2022-10-26T00:19:50.126Z,84.30
2022-10-26T00:24:51.400Z,84.29
2022-10-26T00:29:52.682Z,84.36
2022-10-26T00:34:54.102Z,84.00
2022-10-26T00:39:55.341Z,84.19
2022-10-26T00:44:59.138Z,83.86
2022-10-26T00:50:06.591Z,83.85
2022-10-26T00:55:08.825Z,83.95
2022-10-26T01:00:10.395Z,84.23
2022-10-26T01:05:14.138Z,83.88
2022-10-26T01:10:15.836Z,83.75
2022-10-26T01:15:17.370Z,83.88
2022-10-26T01:20:44.920Z,83.64
2022-10-26T01:26:05.183Z,83.64
2022-10-26T01:31:10.900Z,83.55
2022-10-26T01:36:40.682Z,83.43
2022-10-26T01:41:48.983Z,84.22
2022-10-26T01:46:54.452Z,83.65
2022-10-26T01:51:55.733Z,83.03
2022-10-26T01:57:03.899Z,82.50
2022-10-26T02:02:11.278Z,82.21
2022-10-26T02:07:42.541Z,82.06
2022-10-26T02:13:13.083Z,82.45
2022-10-26T02:18:23.971Z,82.66
2022-10-26T02:23:28.139Z,82.59
2022-10-26T02:28:36.668Z,82.23
2022-10-26T02:33:42.180Z,82.08
2022-10-26T02:38:46.902Z,82.13
2022-10-26T02:43:57.323Z,82.31
2022-10-26T02:48:58.805Z,82.11
2022-10-26T02:54:15.698Z,82.44
2022-10-26T02:59:20.589Z,82.86
2022-10-26T03:04:28.909Z,83.53
2022-10-26T03:09:30.261Z,83.55
2022-10-26T03:14:31.504Z,84.16
2022-10-26T03:19:33.309Z,84.09
2022-10-26T03:24:34.561Z,84.28
2022-10-26T03:29:35.798Z,84.17
2022-10-26T03:34:37.058Z,84.33
2022-10-26T03:39:38.332Z,84.44
2022-10-26T03:44:39.637Z,84.45
2022-10-26T03:49:40.953Z,84.54
2022-10-26T03:54:42.216Z,84.19
2022-10-26T03:59:43.471Z,84.02
2022-10-26T04:04:44.774Z,84.08
2022-10-26T04:09:46.037Z,84.36
2022-10-26T04:14:47.397Z,84.85
2022-10-26T04:19:48.693Z,85.34
2022-10-26T04:24:50.255Z,85.23
2022-10-26T04:29:51.570Z,85.53
2022-10-26T04:34:54.297Z,85.68
2022-10-26T04:39:55.576Z,85.44
2022-10-26T04:44:56.872Z,85.04
2022-10-26T04:49:58.112Z,85.30
2022-10-26T04:54:59.395Z,85.06
2022-10-26T05:00:01.939Z,85.22
2022-10-26T05:10:10.184Z,85.33
2022-10-26T05:15:14.071Z,85.68
2022-10-26T05:20:15.499Z,86.39
2022-10-26T05:25:16.750Z,85.60
2022-10-26T05:30:18.136Z,85.46
2022-10-26T05:35:19.393Z,85.24
2022-10-26T05:40:20.847Z,85.43
2022-10-26T05:45:22.302Z,86.14
2022-10-26T05:50:23.604Z,86.79
2022-10-26T05:55:25.275Z,86.59
2022-10-26T06:00:28.662Z,84.61
2022-10-26T06:05:53.214Z,83.73
2022-10-26T06:10:55.310Z,84.35
2022-10-26T06:16:11.365Z,84.50
2022-10-26T06:21:44.869Z,84.80
2022-10-26T06:26:56.714Z,85.13
2022-10-26T06:31:58.204Z,84.78
2022-10-26T06:37:00.879Z,84.13
2022-10-26T06:42:02.532Z,84.26
2022-10-26T06:47:21.290Z,84.68
2022-10-26T06:52:30.714Z,84.61
2022-10-26T06:57:36.875Z,83.82
2022-10-26T07:02:38.177Z,84.26
2022-10-26T07:07:44.992Z,84.73
2022-10-26T07:12:46.228Z,84.33
2022-10-26T07:17:49.637Z,84.66
2022-10-26T07:22:53.142Z,84.91
2022-10-26T07:27:59.217Z,84.48
2022-10-26T07:33:08.571Z,84.40
2022-10-26T07:38:12.077Z,84.83
2022-10-26T07:43:13.370Z,84.81
2022-10-26T07:48:14.622Z,84.52
2022-10-26T07:53:15.972Z,84.54
2022-10-26T07:58:17.330Z,84.11
2022-10-26T08:03:18.807Z,83.75
2022-10-26T08:08:20.140Z,83.54
2022-10-26T08:13:21.592Z,83.30
2022-10-26T08:18:22.914Z,82.44
2022-10-26T08:23:24.274Z,81.36
2022-10-26T08:28:26.095Z,80.37
2022-10-26T08:33:27.403Z,79.72
2022-10-26T08:38:29.306Z,78.31
2022-10-26T08:43:40.769Z,75.17
2022-10-26T08:48:47.590Z,73.30
2022-10-26T08:54:17.032Z,72.22
2022-10-26T08:59:56.130Z,71.18
2022-10-26T09:04:59.320Z,70.26
2022-10-26T09:15:55.921Z,72.00
2022-10-26T09:21:18.153Z,72.78
2022-10-26T09:26:29.902Z,72.95
2022-10-26T09:31:39.528Z,72.72
2022-10-26T09:36:43.649Z,72.66
2022-10-26T09:41:55.918Z,71.54
2022-10-26T09:47:14.094Z,71.20
2022-10-26T09:52:16.218Z,67.36
2022-10-26T09:57:20.116Z,56.30
2022-10-26T10:02:39.944Z,57.41
2022-10-26T10:07:41.368Z,54.37
2022-10-26T10:12:42.949Z,49.43
2022-10-26T10:17:53.239Z,49.40
2022-10-26T10:22:56.915Z,55.36
2022-10-26T10:27:58.383Z,60.84
2022-10-26T10:33:10.638Z,65.75
2022-10-26T10:38:18.297Z,66.13
2022-10-26T10:43:20.358Z,53.89
2022-10-26T10:48:25.977Z,41.10
2022-10-26T10:53:44.821Z,41.50
2022-10-26T10:59:13.325Z,51.10
2022-10-26T11:04:47.589Z,48.76
2022-10-26T11:15:02.219Z,45.65
2022-10-26T11:20:15.053Z,37.94
2022-10-26T11:25:25.034Z,39.29
2022-10-26T11:30:27.456Z,37.12
2022-10-26T11:35:40.751Z,35.52
2022-10-26T11:40:58.429Z,39.48
2022-10-26T11:46:06.887Z,44.92
2022-10-26T11:51:17.446Z,50.89
2022-10-26T11:56:31.762Z,55.14
2022-10-26T12:01:34.326Z,58.41
2022-10-26T12:06:36.040Z,59.64
2022-10-26T12:11:53.410Z,60.72
2022-10-26T12:17:14.552Z,61.98
2022-10-26T12:22:22.440Z,62.90
2022-10-26T12:27:40.335Z,64.30
2022-10-26T12:32:43.772Z,65.53
2022-10-26T12:37:45.382Z,66.29
2022-10-26T12:42:46.934Z,66.04
2022-10-26T12:47:48.385Z,65.87
2022-10-26T12:52:53.372Z,65.87
2022-10-26T12:58:17.184Z,66.03
2022-10-26T13:03:27.422Z,66.08
2022-10-26T13:08:42.255Z,66.45
2022-10-26T13:13:44.917Z,62.70
2022-10-26T13:18:50.650Z,57.18
2022-10-26T13:23:54.915Z,54.93
2022-10-26T13:29:01.585Z,55.07
2022-10-26T13:34:20.066Z,57.29
2022-10-26T13:39:26.241Z,54.70
2022-10-26T13:45:10.038Z,44.95
2022-10-26T13:50:16.419Z,36.67
2022-10-26T13:55:25.125Z,33.47
2022-10-26T14:00:26.397Z,32.96
2022-10-26T14:05:27.723Z,30.63
2022-10-26T14:10:40.458Z,32.47
2022-10-26T14:15:45.973Z,32.39
2022-10-26T14:20:52.976Z,32.67
2022-10-26T14:25:58.962Z,34.39
2022-10-26T14:31:31.315Z,34.32
2022-10-26T14:37:01.069Z,35.26
2022-10-26T14:42:14.226Z,39.07
2022-10-26T14:47:36.290Z,43.87
2022-10-26T14:52:38.118Z,46.75
2022-10-26T14:57:41.745Z,50.65
2022-10-26T15:02:54.801Z,53.91
2022-10-26T15:07:56.376Z,55.64
2022-10-26T15:12:57.666Z,57.89
2022-10-26T15:17:59.916Z,59.06
2022-10-26T15:23:02.651Z,60.45
2022-10-26T15:28:20.370Z,61.29
2022-10-26T15:33:22.058Z,62.62
2022-10-26T15:38:23.412Z,63.14
2022-10-26T15:43:24.699Z,65.49
2022-10-26T15:48:29.127Z,66.09
2022-10-26T15:53:30.982Z,66.52
2022-10-26T15:58:32.314Z,67.58
2022-10-26T16:03:33.602Z,68.49
2022-10-26T16:08:34.888Z,69.55
2022-10-26T16:13:36.127Z,70.89
2022-10-26T16:18:37.365Z,71.87
2022-10-26T16:23:39.188Z,71.75
2022-10-26T16:28:40.530Z,72.57
2022-10-26T16:33:42.458Z,72.82
2022-10-26T16:38:43.801Z,73.40
2022-10-26T16:43:46.981Z,73.15
2022-10-26T16:48:49.956Z,73.98
2022-10-26T16:53:53.963Z,74.84
2022-10-26T16:58:56.577Z,75.46
2022-10-26T17:03:57.948Z,76.17
2022-10-26T17:08:59.500Z,76.39
2022-10-26T17:14:00.748Z,76.87
2022-10-26T17:19:02.053Z,77.52
2022-10-26T17:24:03.782Z,77.70
2022-10-26T17:29:05.198Z,78.13
2022-10-26T17:34:06.554Z,78.76
2022-10-26T17:39:08.939Z,79.54
2022-10-26T17:44:10.374Z,79.74
2022-10-26T17:49:11.651Z,80.37
2022-10-26T17:54:13.018Z,81.49
2022-10-26T17:59:14.286Z,81.80
2022-10-26T18:04:15.520Z,82.51
2022-10-26T18:09:17.125Z,82.85
2022-10-26T18:14:18.502Z,83.98
2022-10-26T18:19:19.927Z,83.56
2022-10-26T18:24:21.276Z,83.93
2022-10-26T18:29:22.552Z,84.38
2022-10-26T18:34:23.998Z,84.94
2022-10-26T18:39:25.329Z,85.45
2022-10-26T18:44:26.565Z,85.65
2022-10-26T18:49:27.864Z,85.55
2022-10-26T18:54:31.010Z,85.99
2022-10-26T18:59:33.194Z,86.33
2022-10-26T19:04:34.434Z,85.93
2022-10-26T19:09:35.782Z,86.31
2022-10-26T19:14:37.037Z,86.23
2022-10-26T19:19:38.462Z,86.39
2022-10-26T19:24:39.764Z,86.30
2022-10-26T19:29:41.196Z,87.06
2022-10-26T19:34:42.515Z,87.42
2022-10-26T19:39:43.900Z,88.09
2022-10-26T19:44:45.236Z,88.47
2022-10-26T19:49:46.468Z,88.26
2022-10-26T19:54:47.709Z,88.54
2022-10-26T19:59:49.016Z,88.90
2022-10-26T20:04:50.404Z,89.54
2022-10-26T20:09:51.681Z,89.36
2022-10-26T20:14:52.923Z,89.90
2022-10-26T20:19:55.695Z,89.82
2022-10-26T20:24:56.951Z,89.14
2022-10-26T20:29:58.207Z,89.90
2022-10-26T20:34:59.513Z,89.56
2022-10-26T20:40:01.142Z,90.18
2022-10-26T20:45:08.753Z,89.75
2022-10-26T20:50:11.502Z,89.16
2022-10-26T20:55:39.947Z,89.01
2022-10-26T21:00:47.070Z,88.93
2022-10-26T21:05:48.606Z,89.04
2022-10-26T21:10:51.095Z,88.82
2022-10-26T21:15:52.330Z,89.24
2022-10-26T21:20:58.338Z,89.32
2022-10-26T21:26:00.555Z,89.75
2022-10-26T21:31:07.000Z,89.57
2022-10-26T21:36:13.610Z,89.89
2022-10-26T21:41:17.516Z,91.22
2022-10-26T21:46:20.028Z,91.37
2022-10-26T21:51:21.337Z,91.29
2022-10-26T21:56:22.578Z,90.42
2022-10-26T22:01:24.053Z,90.32
2022-10-26T22:06:25.413Z,90.02
2022-10-26T22:11:26.855Z,90.02
2022-10-26T22:16:30.590Z,91.28
2022-10-26T22:21:35.366Z,92.05
2022-10-26T22:26:37.347Z,92.41
2022-10-26T22:31:40.431Z,90.96
2022-10-26T22:36:42.045Z,92.32
2022-10-26T22:41:43.275Z,91.34
2022-10-26T22:46:44.619Z,90.86
2022-10-26T22:51:46.001Z,90.82
2022-10-26T22:56:47.239Z,92.16
2022-10-26T23:01:48.596Z,91.92
2022-10-26T23:06:50.003Z,92.12
2022-10-26T23:11:51.263Z,92.63
2022-10-26T23:16:52.562Z,93.42
2022-10-26T23:21:53.784Z,94.01
2022-10-26T23:26:55.055Z,92.94
2022-10-26T23:31:56.276Z,91.56
2022-10-26T23:36:57.523Z,92.16
2022-10-26T23:41:58.781Z,92.86
2022-10-26T23:47:00.081Z,92.95
2022-10-26T23:52:01.468Z,92.28
2022-10-26T23:57:03.032Z,93.36
